Time;durP1;ratioP1;P1;durP2;ratioP2;P2;SDS_P1;SDS_P2;PMS_P1;PMS_P2;Temp;Humidity;BMP_temperature;BMP_pressure;BME280_temperature;BME280_humidity;BME280_pressure;Samples;Min_cycle;Max_cycle;Signal;HPM_P1;HPM_P2
2022/11/26 12:07:05;;;;;;;30.77;15.18;;;;;;;1.87;100.00;101061.34;1819128;79;28109;-73
2022/11/26 12:09:52;;;;;;;31.75;14.55;;;;;;;1.84;100.00;101068.35;1792481;80;21185;-75
2022/11/26 12:12:34;;;;;;;28.62;12.55;;;;;;;1.83;100.00;101062.09;1792936;80;21149;-75
2022/11/26 12:15:09;;;;;;;23.47;10.93;;;;;;;1.85;100.00;101052.50;1792514;80;21522;-76
2022/11/26 12:17:55;;;;;;;24.43;9.70;;;;;;;1.87;100.00;101055.45;1772999;80;21166;-75
2022/11/26 12:20:36;;;;;;;17.70;8.08;;;;;;;1.88;100.00;101059.86;1792861;80;21114;-75
2022/11/26 12:23:19;;;;;;;20.62;9.55;;;;;;;1.92;100.00;101055.06;1784235;80;21161;-75
2022/11/26 12:26:20;;;;;;;19.05;9.18;;;;;;;1.93;100.00;101053.23;1792592;79;21086;-75
2022/11/26 12:28:57;;;;;;;20.27;9.75;;;;;;;1.97;100.00;101052.88;1792750;80;21141;-75
2022/11/26 12:31:42;;;;;;;18.65;9.53;;;;;;;1.99;100.00;101061.72;1801080;79;21157;-76
2022/11/26 12:34:34;;;;;;;18.92;8.93;;;;;;;2.02;100.00;101070.06;1757459;82;21134;-75
2022/11/26 12:37:29;;;;;;;21.77;8.20;;;;;;;2.03;100.00;101063.19;1757049;82;21774;-76
2022/11/26 12:40:20;;;;;;;19.00;8.80;;;;;;;2.08;100.00;101068.20;1724139;83;21616;-73
2022/11/26 12:42:59;;;;;;;21.77;10.08;;;;;;;2.11;100.00;101061.20;1725909;83;21190;-74
2022/11/26 12:45:50;;;;;;;17.85;9.43;;;;;;;2.12;100.00;101071.02;1757506;81;21579;-75
2022/11/26 12:48:44;;;;;;;18.92;9.35;;;;;;;2.12;100.00;101066.97;1724120;83;21134;-73
2022/11/26 12:51:25;;;;;;;18.20;8.58;;;;;;;2.10;100.00;101063.05;1725946;83;21154;-75
2022/11/26 12:54:06;;;;;;;18.40;8.65;;;;;;;2.09;100.00;101073.98;1757782;82;21151;-73
2022/11/26 12:56:49;;;;;;;20.90;10.80;;;;;;;2.02;100.00;101070.92;1720582;83;21126;-76
2022/11/26 12:59:38;;;;;;;21.20;10.23;;;;;;;1.94;100.00;101073.37;1760242;81;21115;-75
2022/11/26 13:02:29;;;;;;;17.45;9.23;;;;;;;1.97;100.00;101085.31;1757763;81;21169;-77
2022/11/26 13:04:59;;;;;;;17.50;9.30;;;;;;;1.98;100.00;101087.02;1757536;81;21165;-76
2022/11/26 13:08:04;;;;;;;18.25;9.55;;;;;;;1.98;100.00;101096.48;1756904;81;21186;-77
2022/11/26 13:10:54;;;;;;;18.15;9.93;;;;;;;1.97;100.00;101101.52;1757238;81;21538;-77
2022/11/26 13:13:53;;;;;;;18.55;10.18;;;;;;;1.96;100.00;101105.21;1757087;82;21618;-74
2022/11/26 13:16:43;;;;;;;18.67;10.90;;;;;;;1.99;100.00;101107.66;1757200;81;21114;-75
2022/11/26 13:19:35;;;;;;;22.30;10.60;;;;;;;1.98;100.00;101108.64;1757120;82;21142;-76
2022/11/26 13:22:43;;;;;;;17.75;9.35;;;;;;;1.97;100.00;101108.28;1757064;82;21550;-73
2022/11/26 13:25:36;;;;;;;19.00;10.28;;;;;;;1.96;100.00;101106.56;1757105;82;21202;-73
2022/11/26 13:28:47;;;;;;;19.90;9.75;;;;;;;1.94;100.00;101111.20;1757163;82;21126;-72
2022/11/26 13:31:41;;;;;;;25.30;10.53;;;;;;;1.92;100.00;101109.11;1756700;82;21165;-76
2022/11/26 13:34:33;;;;;;;22.60;11.20;;;;;;;1.89;100.00;101113.42;1757038;82;21122;-75
2022/11/26 13:37:32;;;;;;;20.68;9.40;;;;;;;1.91;100.00;101112.80;1757174;82;21150;-74
2022/11/26 13:40:10;;;;;;;18.23;9.60;;;;;;;1.94;100.00;101107.64;1756897;82;21098;-74
2022/11/26 13:42:51;;;;;;;19.25;8.78;;;;;;;1.94;100.00;101109.84;1756439;81;21165;-73
2022/11/26 13:45:32;;;;;;;21.55;9.38;;;;;;;1.92;100.00;101109.11;1757209;82;21218;-72
2022/11/26 13:48:10;;;;;;;18.50;9.83;;;;;;;1.89;100.00;101118.33;1723657;83;21185;-70
2022/11/26 13:50:47;;;;;;;17.80;8.88;;;;;;;1.85;100.00;101120.05;1725504;83;21604;-70
2022/11/26 13:53:23;;;;;;;26.42;11.25;;;;;;;1.87;100.00;101123.48;1757098;81;21621;-71
2022/11/26 13:56:00;;;;;;;17.92;9.58;;;;;;;1.90;100.00;101131.35;1759896;81;21168;-73
2022/11/26 13:58:44;;;;;;;17.32;8.40;;;;;;;1.89;100.00;101129.63;1725588;83;21163;-73
2022/11/26 14:01:39;;;;;;;21.70;10.98;;;;;;;1.89;100.00;101130.98;1757192;82;21120;-70
2022/11/26 14:04:11;;;;;;;21.30;9.33;;;;;;;1.89;100.00;101138.59;1760252;81;21114;-71
2022/11/26 14:07:08;;;;;;;17.32;9.53;;;;;;;1.90;100.00;101146.21;1727411;83;21243;-69
2022/11/26 14:09:47;;;;;;;22.20;11.20;;;;;;;1.91;100.00;101152.84;1762527;81;21606;-69
2022/11/26 14:12:17;;;;;;;28.32;14.07;;;;;;;1.87;100.00;101143.75;1762639;81;21151;-69
2022/11/26 14:14:49;;;;;;;22.17;12.18;;;;;;;1.87;100.00;101144.62;1763051;81;21177;-71
2022/11/26 14:17:24;;;;;;;24.45;12.63;;;;;;;1.87;100.00;101147.32;1762569;81;21209;-70
2022/11/26 14:19:58;;;;;;;19.75;11.35;;;;;;;1.89;100.00;101145.84;1762616;81;21117;-69
2022/11/26 14:22:35;;;;;;;21.85;11.65;;;;;;;1.93;100.00;101153.21;1762658;81;21180;-71
2022/11/26 14:25:10;;;;;;;21.62;11.90;;;;;;;1.90;100.00;101150.27;1762885;81;21134;-71
2022/11/26 14:27:52;;;;;;;22.22;12.65;;;;;;;1.92;100.00;101153.70;1762570;81;21185;-71
2022/11/26 14:30:24;;;;;;;17.95;10.88;;;;;;;1.90;100.00;101151.62;1762634;81;21145;-71
2022/11/26 14:33:18;;;;;;;21.50;10.93;;;;;;;1.88;100.00;101160.34;1762540;81;21191;-70
2022/11/26 14:35:55;;;;;;;26.80;12.88;;;;;;;1.85;100.00;101165.98;1762514;81;21130;-71
2022/11/26 14:38:26;;;;;;;;;;;;;;;1.85;100.00;101165.50;1765176;81;21158;-71
2022/11/26 14:40:59;;;;;;;23.70;14.13;;;;;;;1.86;100.00;101171.27;1755521;82;20178;-70
2022/11/26 14:43:28;;;;;;;20.90;11.80;;;;;;;1.88;100.00;101168.44;1735745;83;22038;-71
2022/11/26 14:46:10;;;;;;;23.02;12.07;;;;;;;1.89;100.00;101162.06;1755241;82;21180;-70
2022/11/26 14:48:46;;;;;;;22.77;12.18;;;;;;;1.90;100.00;101167.83;1755076;82;21547;-71
2022/11/26 14:51:22;;;;;;;28.10;14.58;;;;;;;1.85;100.00;101172.75;1755008;82;21148;-70
2022/11/26 14:53:51;;;;;;;25.50;13.35;;;;;;;1.82;100.00;101172.98;1755392;82;21104;-71
2022/11/26 14:56:22;;;;;;;26.80;14.10;;;;;;;1.80;100.00;101181.70;1755069;82;21140;-70
2022/11/26 14:58:54;;;;;;;31.73;16.15;;;;;;;1.77;100.00;101182.81;1755177;81;21780;-70
2022/11/26 15:01:25;;;;;;;28.45;14.80;;;;;;;1.78;100.00;101185.88;1755197;82;21579;-68
2022/11/26 15:04:01;;;;;;;30.65;14.33;;;;;;;1.79;100.00;101178.64;1755010;82;21594;-69
2022/11/26 15:06:37;;;;;;;22.15;11.10;;;;;;;1.78;100.00;101183.67;1754461;81;21227;-71
2022/11/26 15:09:18;;;;;;;27.05;13.60;;;;;;;1.78;100.00;101183.67;1751854;82;21219;-69
2022/11/26 15:12:13;;;;;;;28.55;14.10;;;;;;;1.80;100.00;101191.16;1752048;82;21151;-70
2022/11/26 15:14:53;;;;;;;28.05;14.65;;;;;;;1.82;100.00;101187.36;1752173;82;21128;-70
2022/11/26 15:17:23;;;;;;;28.90;14.23;;;;;;;1.83;100.00;101184.16;1752234;81;21171;-70
2022/11/26 15:19:52;;;;;;;24.60;11.60;;;;;;;1.81;100.00;101185.64;1751998;82;21128;-70
2022/11/26 15:22:38;;;;;;;22.52;12.23;;;;;;;1.80;100.00;101192.02;1752127;82;21564;-69
2022/11/26 15:25:17;;;;;;;22.48;11.40;;;;;;;1.80;100.00;101185.27;1752148;82;21139;-67
2022/11/26 15:28:06;;;;;;;24.35;12.47;;;;;;;1.84;100.00;101173.72;1752104;82;21212;-69
2022/11/26 15:30:36;;;;;;;23.10;11.90;;;;;;;1.82;100.00;101181.09;1751802;82;21207;-69
2022/11/26 15:33:12;;;;;;;23.25;11.83;;;;;;;1.84;100.00;101180.48;1752039;82;21593;-70
2022/11/26 15:35:42;;;;;;;22.45;11.78;;;;;;;1.85;100.00;101179.50;1724707;82;21135;-70
2022/11/26 15:38:19;;;;;;;19.17;11.10;;;;;;;1.84;100.00;101176.43;1752250;82;21757;-69
2022/11/26 15:41:02;;;;;;;23.20;12.13;;;;;;;1.82;100.00;101175.20;1752237;82;21119;-71
2022/11/26 15:43:44;;;;;;;22.40;11.85;;;;;;;1.80;100.00;101179.00;1752226;82;21167;-70
2022/11/26 15:46:26;;;;;;;27.95;12.63;;;;;;;1.76;100.00;101186.50;1752054;82;21594;-71
2022/11/26 15:48:59;;;;;;;29.82;13.65;;;;;;;1.73;100.00;101188.09;1725072;82;21608;-71
2022/11/26 15:51:39;;;;;;;24.52;12.73;;;;;;;1.74;100.00;101192.52;1752157;82;21578;-70
2022/11/26 15:54:32;;;;;;;24.18;11.60;;;;;;;1.75;100.00;101190.67;1752228;82;21143;-71
2022/11/26 15:57:31;;;;;;;26.33;12.28;;;;;;;1.77;100.00;101195.46;1747925;82;21092;-69
2022/11/26 16:00:05;;;;;;;30.45;11.33;;;;;;;1.74;100.00;101197.91;1752533;82;21131;-70
2022/11/26 16:02:34;;;;;;;23.07;12.13;;;;;;;1.74;100.00;101197.05;1752276;82;21132;-69
2022/11/26 16:05:06;;;;;;;23.32;12.10;;;;;;;1.74;100.00;101195.70;1728194;82;21126;-70
2022/11/26 16:07:35;;;;;;;23.02;11.40;;;;;;;1.76;100.00;101197.80;1742923;81;21096;-71
2022/11/26 16:10:19;;;;;;;27.00;13.45;;;;;;;1.75;100.00;101204.17;1732661;83;21164;-73
2022/11/26 16:13:12;;;;;;;18.65;11.48;;;;;;;1.73;100.00;101208.84;1732496;83;21157;-70
2022/11/26 16:15:52;;;;;;;21.45;11.48;;;;;;;1.72;100.00;101207.13;1732632;83;21219;-70
2022/11/26 16:18:27;;;;;;;25.50;12.80;;;;;;;1.69;100.00;101208.23;1729389;82;21108;-69
2022/11/26 16:21:16;;;;;;;23.73;12.28;;;;;;;1.70;100.00;101211.78;1732464;83;21159;-69
2022/11/26 16:23:52;;;;;;;25.25;13.20;;;;;;;1.71;100.00;101213.02;1732307;83;21183;-71
2022/11/26 16:26:22;;;;;;;51.28;16.12;;;;;;;1.74;100.00;101213.27;1732618;83;21168;-70
2022/11/26 16:28:51;;;;;;;41.05;21.25;;;;;;;1.74;100.00;101221.37;1732342;83;21203;-69
2022/11/26 16:31:20;;;;;;;37.23;19.30;;;;;;;1.73;100.00;101215.59;1715923;83;21163;-71
2022/11/26 16:33:49;;;;;;;30.68;15.60;;;;;;;1.72;100.00;101213.88;1732510;83;21195;-70
2022/11/26 16:36:22;;;;;;;28.27;14.35;;;;;;;1.71;100.00;101211.66;1732321;83;21156;-71
2022/11/26 16:38:51;;;;;;;27.55;14.28;;;;;;;1.73;100.00;101214.24;1732315;82;21131;-71
2022/11/26 16:41:21;;;;;;;29.02;14.68;;;;;;;1.75;100.00;101219.04;1732597;81;21140;-71
2022/11/26 16:43:49;;;;;;;24.32;12.55;;;;;;;1.77;100.00;101219.77;1732440;83;21155;-70
2022/11/26 16:46:22;;;;;;;24.82;12.10;;;;;;;1.77;100.00;101218.42;1732504;82;21120;-73
2022/11/26 16:48:51;;;;;;;26.97;13.30;;;;;;;1.78;100.00;101219.66;1732700;83;21163;-70
2022/11/26 16:51:20;;;;;;;26.45;12.85;;;;;;;1.79;100.00;101220.52;1732630;83;21235;-71
2022/11/26 16:53:49;;;;;;;27.52;13.43;;;;;;;1.81;100.00;101226.16;1732670;83;21214;-70
2022/11/26 16:56:36;;;;;;;28.60;15.10;;;;;;;1.84;100.00;101223.72;1715509;83;21611;-71
2022/11/26 16:59:01;;;;;;;29.75;14.15;;;;;;;1.86;100.00;101218.56;1731664;82;21121;-71
2022/11/26 17:01:30;;;;;;;24.70;13.25;;;;;;;1.86;100.00;101221.26;1732521;83;21156;-70
2022/11/26 17:03:58;;;;;;;22.32;12.30;;;;;;;1.87;100.00;101218.06;1740327;82;21215;-70
2022/11/26 17:06:30;;;;;;;24.32;12.13;;;;;;;1.87;100.00;101220.27;1732378;81;21122;-71
2022/11/26 17:08:59;;;;;;;24.77;13.65;;;;;;;1.86;100.00;101223.96;1759429;81;21551;-71
2022/11/26 17:11:28;;;;;;;23.30;12.75;;;;;;;1.85;100.00;101224.08;1763092;81;21086;-71
2022/11/26 17:13:57;;;;;;;22.87;11.35;;;;;;;1.83;100.00;101217.94;1762569;81;21573;-70
2022/11/26 17:16:26;;;;;;;23.15;11.95;;;;;;;1.83;100.00;101219.30;1762604;81;21185;-71
2022/11/26 17:18:55;;;;;;;22.10;12.15;;;;;;;1.83;100.00;101216.59;1762912;81;21114;-70
2022/11/26 17:21:24;;;;;;;20.40;10.32;;;;;;;1.83;100.00;101219.30;1763026;81;21151;-71
2022/11/26 17:23:53;;;;;;;21.73;10.60;;;;;;;1.85;100.00;101220.03;1762719;81;21161;-70
2022/11/26 17:26:23;;;;;;;24.72;10.85;;;;;;;1.86;100.00;101220.40;1762611;81;21577;-70
2022/11/26 17:28:52;;;;;;;20.77;11.63;;;;;;;1.86;100.00;101228.50;1735063;81;21241;-71
2022/11/26 17:31:20;;;;;;;22.65;12.25;;;;;;;1.86;100.00;101225.80;1762922;81;21153;-71
2022/11/26 17:33:49;;;;;;;21.87;11.80;;;;;;;1.88;100.00;101234.65;1762625;81;21125;-70
2022/11/26 17:36:20;;;;;;;23.67;12.37;;;;;;;1.89;100.00;101233.67;1762759;81;21153;-70
2022/11/26 17:38:49;;;;;;;27.93;13.05;;;;;;;1.90;100.00;101233.55;1759935;81;21130;-71
2022/11/26 17:41:18;;;;;;;19.07;10.98;;;;;;;1.90;100.00;101234.90;1762755;81;21126;-70
2022/11/26 17:43:48;;;;;;;24.47;13.13;;;;;;;1.89;100.00;101233.17;1762821;81;21463;-69
2022/11/26 17:46:19;;;;;;;20.88;11.43;;;;;;;1.87;100.00;101232.44;1762615;81;21185;-70
2022/11/26 17:48:48;;;;;;;21.17;11.85;;;;;;;1.85;100.00;101227.64;1762495;81;21114;-70
2022/11/26 17:51:18;;;;;;;20.15;11.70;;;;;;;1.87;100.00;101231.58;1762908;81;21200;-70
2022/11/26 17:53:47;;;;;;;23.15;12.05;;;;;;;1.86;100.00;101231.20;1762564;81;21544;-71
2022/11/26 17:56:20;;;;;;;25.85;12.98;;;;;;;1.87;100.00;101231.58;1762800;81;21583;-70
2022/11/26 17:58:49;;;;;;;22.60;12.25;;;;;;;1.89;100.00;101231.83;1762533;81;21150;-70
2022/11/26 18:01:19;;;;;;;21.37;12.13;;;;;;;1.90;100.00;101232.19;1759981;81;21090;-69
2022/11/26 18:03:51;;;;;;;25.12;13.05;;;;;;;1.90;100.00;101236.25;1762774;81;21122;-70
2022/11/26 18:06:40;;;;;;;33.02;15.95;;;;;;;1.90;100.00;101232.69;1762438;81;21133;-69
2022/11/26 18:09:13;;;;;;;28.42;13.83;;;;;;;1.88;100.00;101238.21;1755774;81;21123;-70
2022/11/26 18:11:50;;;;;;;31.97;14.83;;;;;;;1.86;100.00;101237.96;1727990;82;21161;-71
2022/11/26 18:14:21;;;;;;;23.90;12.88;;;;;;;1.84;100.00;101236.73;1757079;82;21534;-71
2022/11/26 18:16:50;;;;;;;26.35;13.48;;;;;;;1.82;100.00;101242.75;1756855;82;21605;-70
2022/11/26 18:19:22;;;;;;;27.60;14.15;;;;;;;1.82;100.00;101237.84;1756980;81;21130;-70
2022/11/26 18:21:52;;;;;;;29.40;13.75;;;;;;;1.80;100.00;101239.80;1756919;82;21130;-71
2022/11/26 18:24:22;;;;;;;32.05;14.40;;;;;;;1.79;100.00;101238.08;1757035;82;21165;-71
2022/11/26 18:26:55;;;;;;;26.42;14.53;;;;;;;1.78;100.00;101237.70;1756888;81;21154;-70
2022/11/26 18:29:24;;;;;;;26.48;14.00;;;;;;;1.77;100.00;101238.69;1756941;82;21114;-69
2022/11/26 18:31:54;;;;;;;23.60;12.23;;;;;;;1.76;100.00;101242.38;1757124;82;21153;-71
2022/11/26 18:34:24;;;;;;;27.00;12.70;;;;;;;1.75;100.00;101240.65;1756873;81;21122;-70
2022/11/26 18:36:54;;;;;;;21.70;11.35;;;;;;;1.74;100.00;101247.03;1756921;82;21133;-70
2022/11/26 18:39:23;;;;;;;22.65;11.20;;;;;;;1.74;100.00;101257.35;1756930;81;21161;-71
2022/11/26 18:41:53;;;;;;;21.00;11.68;;;;;;;1.75;100.00;101253.67;1757205;82;21573;-70
2022/11/26 18:44:24;;;;;;;19.95;10.32;;;;;;;1.75;100.00;101246.91;1752703;82;21560;-70
2022/11/26 18:46:52;;;;;;;19.52;10.90;;;;;;;1.77;100.00;101253.55;1756836;81;21193;-70
2022/11/26 18:49:22;;;;;;;24.27;12.65;;;;;;;1.78;100.00;101249.87;1757253;82;21130;-69
2022/11/26 18:51:52;;;;;;;24.85;13.10;;;;;;;1.77;100.00;101252.20;1757006;82;21130;-70
2022/11/26 18:54:22;;;;;;;26.33;12.50;;;;;;;1.75;100.00;101261.77;1757025;82;21149;-70
2022/11/26 18:56:51;;;;;;;26.35;13.83;;;;;;;1.74;100.00;101264.11;1756887;82;21656;-71
2022/11/26 18:59:22;;;;;;;20.32;10.93;;;;;;;1.76;100.00;101261.28;1757012;82;21157;-70
2022/11/26 19:01:52;;;;;;;23.52;10.82;;;;;;;1.77;100.00;101257.60;1757023;81;21146;-68
2022/11/26 19:04:22;;;;;;;29.10;12.35;;;;;;;1.75;100.00;101261.77;1692180;84;21570;-69
2022/11/26 19:06:51;;;;;;;32.42;14.43;;;;;;;1.75;100.00;101264.97;1692213;85;21625;-69
2022/11/26 19:09:21;;;;;;;27.15;11.73;;;;;;;1.74;100.00;101268.16;1692237;85;21188;-72
2022/11/26 19:11:53;;;;;;;22.37;11.18;;;;;;;1.72;100.00;101273.31;1692321;85;21130;-70
2022/11/26 19:14:22;;;;;;;20.10;9.83;;;;;;;1.68;100.00;101273.18;1692376;84;21166;-71
2022/11/26 19:16:52;;;;;;;21.35;11.40;;;;;;;1.66;100.00;101279.19;1692527;85;21122;-70
2022/11/26 19:19:21;;;;;;;30.12;12.82;;;;;;;1.65;100.00;101280.17;1692530;85;21122;-71
2022/11/26 19:21:51;;;;;;;21.20;10.08;;;;;;;1.65;100.00;101286.43;1705756;82;21146;-70
2022/11/26 19:24:21;;;;;;;18.98;10.50;;;;;;;1.67;100.00;101291.72;1756238;82;21146;-71
2022/11/26 19:26:50;;;;;;;17.48;10.13;;;;;;;1.62;100.00;101289.86;1756960;81;21177;-71
2022/11/26 19:29:20;;;;;;;17.55;9.10;;;;;;;1.60;100.00;101296.73;1757036;81;21441;-70
2022/11/26 19:31:49;;;;;;;17.57;9.53;;;;;;;1.62;100.00;101289.86;1756964;82;21150;-70
2022/11/26 19:34:19;;;;;;;22.98;11.05;;;;;;;1.64;100.00;101292.81;1756913;82;21117;-70
2022/11/26 19:36:48;;;;;;;20.32;9.65;;;;;;;1.66;100.00;101299.45;1757199;81;21187;-70
2022/11/26 19:39:18;;;;;;;20.20;9.90;;;;;;;1.65;100.00;101300.42;1757079;81;21197;-70
2022/11/26 19:41:47;;;;;;;21.82;9.85;;;;;;;1.62;100.00;101303.37;1757124;81;21592;-71
2022/11/26 19:44:17;;;;;;;21.45;10.58;;;;;;;1.63;100.00;101306.44;1757003;82;21126;-70
2022/11/26 19:46:47;;;;;;;20.90;10.72;;;;;;;1.65;100.00;101308.05;1756865;81;21126;-70
2022/11/26 19:49:16;;;;;;;24.50;11.30;;;;;;;1.65;100.00;101313.45;1757173;81;21420;-70
2022/11/26 19:51:45;;;;;;;19.07;10.08;;;;;;;1.65;100.00;101311.23;1756895;82;21134;-70
2022/11/26 19:54:14;;;;;;;21.57;9.80;;;;;;;1.65;100.00;101314.80;1757237;81;21589;-71
2022/11/26 19:56:44;;;;;;;20.55;9.65;;;;;;;1.66;100.00;101311.60;1757141;82;21169;-71
2022/11/26 19:59:15;;;;;;;16.37;9.10;;;;;;;1.69;100.00;101314.07;1756989;82;21537;-69
2022/11/26 20:01:44;;;;;;;22.00;10.10;;;;;;;1.70;100.00;101313.09;1757138;81;21126;-70
2022/11/26 20:04:16;;;;;;;18.92;9.90;;;;;;;1.69;100.00;101312.72;1756936;81;21581;-72
2022/11/26 20:06:46;;;;;;;19.75;10.40;;;;;;;1.71;100.00;101317.52;1756878;82;21118;-71
2022/11/26 20:09:15;;;;;;;20.72;10.55;;;;;;;1.72;100.00;101311.99;1760168;81;21126;-71
2022/11/26 20:11:44;;;;;;;24.37;10.38;;;;;;;1.72;100.00;101316.05;1762781;81;21130;-71
2022/11/26 20:14:13;;;;;;;17.42;8.98;;;;;;;1.73;100.00;101316.91;1762537;81;21165;-72
2022/11/26 20:16:43;;;;;;;17.07;8.80;;;;;;;1.74;100.00;101319.48;1762823;81;21176;-71
2022/11/26 20:19:12;;;;;;;16.30;9.23;;;;;;;1.75;100.00;101323.91;1762896;81;21173;-70
2022/11/26 20:21:40;;;;;;;17.05;9.58;;;;;;;1.76;100.00;101316.67;1762871;81;21122;-70
2022/11/26 20:24:15;;;;;;;15.60;8.48;;;;;;;1.77;100.00;101319.74;1763226;81;21090;-70
2022/11/26 20:26:47;;;;;;;16.87;8.20;;;;;;;1.75;100.00;101323.05;1736222;81;21121;-71
2022/11/26 20:29:17;;;;;;;15.40;7.78;;;;;;;1.72;100.00;101320.09;1762763;81;21118;-70
2022/11/26 20:31:48;;;;;;;17.23;8.53;;;;;;;1.75;100.00;101320.35;1762666;81;21166;-70
2022/11/26 20:34:22;;;;;;;20.00;8.68;;;;;;;1.73;100.00;101312.85;1762634;81;21105;-69
2022/11/26 20:36:51;;;;;;;19.62;10.35;;;;;;;1.75;100.00;101314.45;1762779;81;21181;-69
2022/11/26 20:39:22;;;;;;;16.67;8.53;;;;;;;1.77;100.00;101315.69;1762730;81;21106;-70
2022/11/26 20:41:50;;;;;;;20.02;9.08;;;;;;;1.75;100.00;101313.11;1762720;81;21599;-72
2022/11/26 20:44:19;;;;;;;23.52;10.15;;;;;;;1.75;100.00;101313.11;1762674;81;21161;-72
2022/11/26 20:46:48;;;;;;;18.85;9.83;;;;;;;1.75;100.00;101306.84;1762914;81;21118;-71
2022/11/26 20:49:18;;;;;;;19.42;10.25;;;;;;;1.72;100.00;101307.08;1762694;81;22119;-69
2022/11/26 20:51:47;;;;;;;22.60;10.98;;;;;;;1.71;100.00;101317.52;1762782;81;21153;-70
2022/11/26 20:54:16;;;;;;;16.20;8.88;;;;;;;1.70;100.00;101319.36;1762783;81;21579;-71
2022/11/26 20:56:45;;;;;;;17.60;9.60;;;;;;;1.71;100.00;101318.37;1762930;81;21109;-72
2022/11/26 20:59:14;;;;;;;22.65;9.70;;;;;;;1.71;100.00;101317.02;1762708;81;21603;-71
2022/11/26 21:01:45;;;;;;;17.73;9.50;;;;;;;1.71;100.00;101321.56;1762699;81;21098;-71
2022/11/26 21:04:14;;;;;;;18.00;9.53;;;;;;;1.69;100.00;101323.03;1671884;86;21161;-70
2022/11/26 21:06:43;;;;;;;19.55;9.48;;;;;;;1.67;100.00;101326.83;1671846;86;21122;-72
2022/11/26 21:09:12;;;;;;;15.05;8.53;;;;;;;1.64;100.00;101330.62;1668926;86;21561;-72
2022/11/26 21:11:42;;;;;;;20.65;9.65;;;;;;;1.64;100.00;101340.09;1665201;86;21248;-73
2022/11/26 21:14:11;;;;;;;21.12;10.20;;;;;;;1.61;100.00;101329.52;1665214;86;21245;-72
2022/11/26 21:16:43;;;;;;;19.00;10.63;;;;;;;1.62;100.00;101335.78;1665136;86;21125;-72
2022/11/26 21:19:12;;;;;;;19.00;10.15;;;;;;;1.59;100.00;101344.49;1664993;86;21177;-71
2022/11/26 21:21:41;;;;;;;16.50;9.38;;;;;;;1.58;100.00;101345.95;1683803;82;21601;-72
2022/11/26 21:24:11;;;;;;;15.43;8.25;;;;;;;1.56;100.00;101339.32;1724461;83;21603;-71
2022/11/26 21:26:39;;;;;;;12.90;7.90;;;;;;;1.56;100.00;101343.86;1721387;83;21184;-71
2022/11/26 21:29:08;;;;;;;15.78;8.98;;;;;;;1.55;100.00;101348.41;1724426;83;21114;-70
2022/11/26 21:31:37;;;;;;;19.12;9.30;;;;;;;1.52;100.00;101349.98;1721308;83;21217;-70
2022/11/26 21:34:06;;;;;;;14.58;8.10;;;;;;;1.53;100.00;101361.16;1724402;83;21131;-70
2022/11/26 21:36:36;;;;;;;16.73;8.48;;;;;;;1.51;100.00;101355.02;1721195;83;21162;-71
2022/11/26 21:39:05;;;;;;;12.70;8.08;;;;;;;1.46;100.00;101354.50;1724675;83;21107;-71
2022/11/26 21:41:34;;;;;;;11.83;7.33;;;;;;;1.45;100.00;101343.33;1721336;83;21206;-71
2022/11/26 21:44:04;;;;;;;12.82;7.42;;;;;;;1.44;100.00;101344.80;1724610;83;21581;-71
2022/11/26 21:46:35;;;;;;;15.45;7.85;;;;;;;1.45;100.00;101350.56;1721325;83;21651;-72
2022/11/26 21:49:06;;;;;;;12.80;7.62;;;;;;;1.45;100.00;101348.73;1724378;83;21181;-72
2022/11/26 21:51:35;;;;;;;15.80;7.97;;;;;;;1.47;100.00;101352.66;1720651;83;21134;-71
2022/11/26 21:54:04;;;;;;;18.65;8.95;;;;;;;1.48;100.00;101348.98;1724630;83;21134;-70
2022/11/26 21:56:33;;;;;;;13.35;7.47;;;;;;;1.48;100.00;101345.80;1721281;83;21217;-72
2022/11/26 21:59:02;;;;;;;12.75;7.45;;;;;;;1.50;100.00;101354.64;1724425;83;21136;-71
2022/11/26 22:01:35;;;;;;;11.85;7.30;;;;;;;1.49;100.00;101352.92;1721281;83;21550;-70
2022/11/26 22:04:13;;;;;;;14.68;7.08;;;;;;;1.46;100.00;101348.23;1724442;83;21553;-70
2022/11/26 22:06:46;;;;;;;15.98;7.30;;;;;;;1.46;100.00;101347.75;1636686;88;21175;-72
2022/11/26 22:09:16;;;;;;;10.85;7.62;;;;;;;1.47;100.00;101356.23;1641182;87;21129;-72
2022/11/26 22:11:45;;;;;;;13.75;7.65;;;;;;;1.47;100.00;101352.17;1665376;86;21179;-70
2022/11/26 22:14:15;;;;;;;12.58;6.83;;;;;;;1.47;100.00;101356.72;1665104;86;21139;-72
2022/11/26 22:16:52;;;;;;;13.80;7.67;;;;;;;1.49;100.00;101353.41;1665014;86;21616;-71
2022/11/26 22:19:22;;;;;;;13.25;6.92;;;;;;;1.50;100.00;101353.78;1665188;86;21595;-71
2022/11/26 22:21:51;;;;;;;12.25;6.85;;;;;;;1.52;100.00;101357.23;1665288;86;21132;-71
2022/11/26 22:24:20;;;;;;;13.65;8.43;;;;;;;1.51;100.00;101347.41;1687916;82;21126;-70
2022/11/26 22:26:49;;;;;;;16.57;8.30;;;;;;;1.50;100.00;101347.89;1752664;82;21628;-71
2022/11/26 22:29:19;;;;;;;15.75;8.33;;;;;;;1.50;100.00;101343.84;1752669;82;21138;-72
2022/11/26 22:31:49;;;;;;;14.13;7.80;;;;;;;1.51;100.00;101347.41;1752696;82;21595;-71
2022/11/26 22:34:23;;;;;;;15.15;8.10;;;;;;;1.50;100.00;101349.73;1753000;82;21173;-71
2022/11/26 22:36:52;;;;;;;14.40;7.12;;;;;;;1.43;100.00;101357.43;1752658;82;21526;-71
2022/11/26 22:39:22;;;;;;;16.42;9.00;;;;;;;1.40;100.00;101352.27;1752599;82;21547;-72
2022/11/26 22:41:52;;;;;;;13.22;7.83;;;;;;;1.40;100.00;101358.16;1753035;82;21130;-71
2022/11/26 22:44:21;;;;;;;10.78;6.90;;;;;;;1.40;100.00;101352.75;1752985;82;21113;-71
2022/11/26 22:46:50;;;;;;;14.98;8.88;;;;;;;1.40;100.00;101356.31;1752844;82;21181;-71
2022/11/26 22:49:20;;;;;;;14.45;8.25;;;;;;;1.38;100.00;101346.12;1752712;82;21098;-71
2022/11/26 22:51:49;;;;;;;9.73;6.25;;;;;;;1.38;100.00;101348.81;1752118;82;21122;-71
2022/11/26 22:54:20;;;;;;;12.85;7.42;;;;;;;1.42;100.00;101352.14;1752714;81;21221;-71
2022/11/26 22:56:50;;;;;;;13.40;7.90;;;;;;;1.42;100.00;101352.14;1752542;82;21504;-71
2022/11/26 22:59:19;;;;;;;12.10;7.30;;;;;;;1.41;100.00;101355.34;1752743;82;21153;-71
2022/11/26 23:01:52;;;;;;;11.50;7.05;;;;;;;1.43;100.00;101357.92;1752909;82;21522;-71
2022/11/26 23:04:21;;;;;;;11.43;7.25;;;;;;;1.43;100.00;101352.03;1751855;82;21547;-72
2022/11/26 23:06:51;;;;;;;13.03;6.90;;;;;;;1.41;100.00;101353.98;1752920;82;21174;-70
2022/11/26 23:09:20;;;;;;;9.53;5.70;;;;;;;1.42;100.00;101353.01;1748182;81;21120;-73
2022/11/26 23:11:50;;;;;;;9.73;6.10;;;;;;;1.44;100.00;101359.64;1732744;83;21116;-69
2022/11/26 23:14:19;;;;;;;10.93;7.20;;;;;;;1.45;100.00;101354.62;1732630;83;21164;-71
2022/11/26 23:16:47;;;;;;;9.43;6.35;;;;;;;1.45;100.00;101364.06;1731893;82;21156;-71
2022/11/26 23:19:17;;;;;;;12.13;6.17;;;;;;;1.44;100.00;101360.51;1732422;83;21601;-70
2022/11/26 23:21:46;;;;;;;11.97;7.45;;;;;;;1.45;100.00;101359.53;1732557;83;21155;-70
2022/11/26 23:24:15;;;;;;;15.88;8.05;;;;;;;1.45;100.00;101356.83;1732445;83;21124;-70
2022/11/26 23:26:44;;;;;;;14.03;7.55;;;;;;;1.45;100.00;101360.88;1732536;83;21159;-71
2022/11/26 23:29:13;;;;;;;11.70;6.40;;;;;;;1.45;100.00;101360.88;1732345;83;21865;-71
2022/11/26 23:31:42;;;;;;;13.22;7.65;;;;;;;1.44;100.00;101361.00;1715816;83;21556;-72
2022/11/26 23:34:11;;;;;;;14.65;6.80;;;;;;;1.43;100.00;101361.97;1732508;83;21116;-71
2022/11/26 23:36:41;;;;;;;9.93;5.87;;;;;;;1.39;100.00;101349.19;1732512;83;21152;-72
2022/11/26 23:39:11;;;;;;;9.30;5.62;;;;;;;1.37;100.00;101356.55;1732439;83;21151;-71
2022/11/26 23:41:40;;;;;;;10.35;5.90;;;;;;;1.34;100.00;101356.77;1732581;83;21159;-71
2022/11/26 23:44:09;;;;;;;7.70;5.35;;;;;;;1.31;100.00;101355.66;1732459;83;21132;-72
2022/11/26 23:46:39;;;;;;;7.47;4.83;;;;;;;1.34;100.00;101356.77;1732122;83;21128;-71
2022/11/26 23:49:08;;;;;;;9.93;4.87;;;;;;;1.35;100.00;101361.20;1732522;83;21120;-71
2022/11/26 23:51:38;;;;;;;6.15;4.58;;;;;;;1.34;100.00;101354.56;1732609;81;21570;-71